Time;durP1;ratioP1;P1;durP2;ratioP2;P2;SDS_P1;SDS_P2;PMS_P1;PMS_P2;Temp;Humidity;BMP_temperature;BMP_pressure;BME280_temperature;BME280_humidity;BME280_pressure;Samples;Min_cycle;Max_cycle;Signal;HPM_P1;HPM_P2
2022/01/21 00:01:49;;;;;;;2.35;1.10;;;0.80;99.90;;;;;;4948217;28;20067;-63
2022/01/21 00:04:15;;;;;;;2.85;1.05;;;0.80;99.90;;;;;;4939900;28;20035;-63
2022/01/21 00:06:41;;;;;;;12.35;2.58;;;0.80;99.90;;;;;;4947677;28;20027;-63
2022/01/21 00:09:06;;;;;;;1.50;1.00;;;0.70;99.90;;;;;;4946489;28;20483;-63
2022/01/21 00:11:34;;;;;;;1.88;1.25;;;0.80;99.90;;;;;;4952984;28;20490;-64
2022/01/21 00:14:00;;;;;;;0.80;0.80;;;0.70;99.90;;;;;;4951898;28;20106;-64
2022/01/21 00:16:27;;;;;;;1.17;0.80;;;0.80;99.90;;;;;;4952086;28;20031;-63
2022/01/21 00:19:02;;;;;;;2.88;0.88;;;0.90;99.90;;;;;;4953324;28;20031;-63
2022/01/21 00:32:27;;;;;;;0.70;0.70;;;1.00;99.90;;;;;;4950441;28;20041;-63
2022/01/21 00:34:52;;;;;;;2.30;1.08;;;1.00;99.90;;;;;;4949082;28;20106;-63
2022/01/21 00:37:18;;;;;;;2.65;2.05;;;1.00;99.90;;;;;;4949060;28;20035;-63
2022/01/21 00:39:50;;;;;;;0.80;0.80;;;1.00;99.90;;;;;;4934160;29;20074;-64
2022/01/21 00:44:52;;;;;;;1.27;1.05;;;1.00;99.90;;;;;;4951189;28;20035;-63
2022/01/21 00:47:18;;;;;;;2.35;1.45;;;1.00;99.90;;;;;;4950364;28;20030;-64
2022/01/21 00:49:43;;;;;;;3.30;1.85;;;1.00;99.90;;;;;;4950913;28;20479;-63
2022/01/21 00:52:09;;;;;;;1.30;1.10;;;1.00;99.90;;;;;;4952388;28;20041;-63
2022/01/21 00:54:34;;;;;;;7.47;1.15;;;1.00;99.90;;;;;;4950051;28;20035;-64
2022/01/21 00:57:00;;;;;;;2.58;1.33;;;1.10;99.90;;;;;;4948143;28;20031;-63
2022/01/21 00:59:26;;;;;;;0.70;0.70;;;1.10;99.90;;;;;;4947639;28;20082;-64
2022/01/21 01:01:53;;;;;;;0.82;0.82;;;1.10;99.90;;;;;;4949086;28;20035;-63
2022/01/21 01:04:19;;;;;;;1.25;1.13;;;1.10;99.90;;;;;;4949068;28;20031;-63
2022/01/21 01:06:44;;;;;;;2.42;1.67;;;1.10;99.90;;;;;;4945199;28;20032;-63
2022/01/21 01:09:10;;;;;;;0.90;0.82;;;1.00;99.90;;;;;;4955249;28;20046;-64
2022/01/21 01:12:47;;;;;;;3.97;1.27;;;1.00;99.90;;;;;;4932813;28;20562;-64
2022/01/21 01:20:07;;;;;;;8.25;1.73;;;1.00;99.90;;;;;;4941861;28;20042;-63
2022/01/21 01:22:48;;;;;;;1.60;1.38;;;1.00;99.90;;;;;;4952211;28;20019;-63
2022/01/21 01:27:59;;;;;;;1.67;1.10;;;1.10;99.90;;;;;;4950655;28;20179;-63
2022/01/21 01:30:28;;;;;;;0.77;0.77;;;1.10;99.90;;;;;;4947884;28;20144;-63
2022/01/21 01:32:57;;;;;;;4.38;1.90;;;1.20;99.90;;;;;;4953095;28;20031;-63
2022/01/21 01:35:23;;;;;;;0.70;0.70;;;1.20;99.90;;;;;;4949665;28;20054;-63
2022/01/21 01:38:24;;;;;;;0.73;0.73;;;1.20;99.90;;;;;;4949183;29;20035;-63
2022/01/21 01:40:47;;;;;;;4.03;2.40;;;1.20;99.90;;;;;;4945060;28;20539;-63
2022/01/21 01:50:57;;;;;;;4.18;1.48;;;1.10;99.90;;;;;;4948618;28;20072;-64
2022/01/21 01:53:28;;;;;;;0.90;0.90;;;1.00;99.90;;;;;;4947940;28;20038;-64
2022/01/21 01:55:54;;;;;;;1.42;1.15;;;1.00;99.90;;;;;;4946290;28;20039;-63
2022/01/21 01:58:20;;;;;;;2.63;1.35;;;1.10;99.90;;;;;;4948363;28;20027;-63
2022/01/21 02:00:46;;;;;;;1.48;1.33;;;1.10;99.90;;;;;;4948150;28;20107;-64
2022/01/21 02:03:14;;;;;;;1.77;1.35;;;1.10;99.90;;;;;;4952465;28;20031;-63
2022/01/21 02:05:40;;;;;;;6.53;1.88;;;1.10;99.90;;;;;;4946707;28;20047;-63
2022/01/21 02:08:07;;;;;;;2.15;1.42;;;1.10;99.90;;;;;;4947640;28;20034;-63
2022/01/21 02:10:34;;;;;;;5.88;2.03;;;1.10;99.90;;;;;;4936158;29;20069;-64
2022/01/21 02:13:05;;;;;;;1.60;1.00;;;1.00;99.90;;;;;;4944568;28;20107;-64
2022/01/21 02:15:41;;;;;;;0.70;0.70;;;1.00;99.90;;;;;;4950041;28;20031;-64
2022/01/21 02:21:37;;;;;;;0.70;0.70;;;0.80;99.90;;;;;;4947701;28;20067;-64
2022/01/21 02:23:37;;;;;;;1.63;1.05;;;0.90;99.90;;;;;;4936806;28;20400;-64
2022/01/21 02:26:03;;;;;;;6.32;1.67;;;0.90;99.90;;;;;;4947204;28;20036;-64
2022/01/21 02:28:29;;;;;;;2.80;1.60;;;0.90;99.90;;;;;;4948410;28;20077;-64
2022/01/21 02:30:56;;;;;;;3.15;1.60;;;1.00;99.90;;;;;;4949009;28;20027;-64
2022/01/21 02:33:23;;;;;;;1.60;1.40;;;1.00;99.90;;;;;;4947796;28;20031;-64
2022/01/21 02:35:49;;;;;;;2.17;1.60;;;0.90;99.90;;;;;;4948107;28;20440;-64
2022/01/21 02:38:16;;;;;;;1.42;1.00;;;1.00;99.90;;;;;;4943891;28;20035;-64
2022/01/21 02:40:42;;;;;;;1.05;0.93;;;1.00;99.90;;;;;;4943972;28;20023;-64
2022/01/21 02:43:08;;;;;;;0.70;0.70;;;1.10;99.90;;;;;;4945246;28;20111;-64
2022/01/21 02:45:36;;;;;;;1.42;1.17;;;1.10;99.90;;;;;;4946988;28;20413;-64
2022/01/21 02:48:02;;;;;;;10.25;5.80;;;1.10;99.90;;;;;;4946218;28;20025;-64
2022/01/21 02:50:27;;;;;;;1.30;1.00;;;1.10;99.90;;;;;;4947637;28;20066;-64
2022/01/21 02:52:57;;;;;;;0.80;0.80;;;1.10;99.90;;;;;;4946333;28;20463;-64
2022/01/21 02:55:24;;;;;;;0.80;0.80;;;1.10;99.90;;;;;;4927661;29;20039;-64
2022/01/21 02:57:50;;;;;;;1.70;1.30;;;1.00;99.90;;;;;;4950377;28;20345;-64
2022/01/21 03:00:16;;;;;;;2.05;1.35;;;1.10;99.90;;;;;;4948626;28;20480;-64
2022/01/21 03:02:42;;;;;;;4.03;1.88;;;1.10;99.90;;;;;;4941487;28;20130;-64
2022/01/21 03:05:13;;;;;;;2.20;2.00;;;1.10;99.90;;;;;;4949529;28;20102;-64
2022/01/21 03:07:39;;;;;;;1.50;1.30;;;1.10;99.90;;;;;;4941610;28;20059;-64
2022/01/21 03:10:05;;;;;;;3.28;1.50;;;1.10;99.90;;;;;;4949895;28;20496;-64
2022/01/21 03:12:31;;;;;;;3.45;1.02;;;1.20;99.90;;;;;;4945705;28;20027;-64
2022/01/21 03:14:56;;;;;;;1.10;0.95;;;1.10;99.90;;;;;;4945962;28;20118;-64
2022/01/21 03:17:22;;;;;;;3.97;2.25;;;1.10;99.90;;;;;;4950591;28;20023;-64
2022/01/21 03:19:48;;;;;;;0.80;0.80;;;1.20;99.90;;;;;;4944601;28;20034;-64
2022/01/21 03:22:13;;;;;;;3.28;1.65;;;1.20;99.90;;;;;;4949278;28;20485;-64
2022/01/21 03:24:39;;;;;;;0.80;0.80;;;1.20;99.90;;;;;;4946293;28;20031;-64
2022/01/21 03:27:05;;;;;;;1.48;0.93;;;1.20;99.90;;;;;;4950602;28;20555;-64
2022/01/21 03:29:31;;;;;;;1.50;1.17;;;1.30;99.90;;;;;;4945758;28;20039;-65
2022/01/21 03:31:57;;;;;;;0.80;0.80;;;1.30;99.90;;;;;;4945949;28;20118;-64
2022/01/21 03:34:23;;;;;;;1.63;0.88;;;1.30;99.90;;;;;;4947520;28;20023;-64
2022/01/21 03:36:49;;;;;;;0.80;0.80;;;1.70;99.90;;;;;;4941089;28;20046;-64
2022/01/21 03:39:16;;;;;;;0.75;0.75;;;1.30;99.90;;;;;;4949051;28;20057;-64
2022/01/21 03:41:42;;;;;;;1.45;0.82;;;1.30;99.90;;;;;;4944471;28;20520;-64
2022/01/21 03:44:07;;;;;;;1.15;1.00;;;1.30;99.90;;;;;;4942715;28;20106;-64
2022/01/21 03:46:33;;;;;;;0.85;0.85;;;1.30;99.90;;;;;;4950581;28;20039;-64
2022/01/21 03:48:59;;;;;;;1.05;0.90;;;1.30;99.90;;;;;;4947623;28;20062;-64
2022/01/21 03:51:25;;;;;;;1.10;1.00;;;1.40;99.90;;;;;;4950956;28;20144;-64
2022/01/21 03:53:52;;;;;;;0.85;0.85;;;1.40;99.90;;;;;;4947438;28;20039;-64
2022/01/21 03:56:17;;;;;;;0.80;0.80;;;1.40;99.90;;;;;;4953598;28;20527;-65
2022/01/21 03:58:43;;;;;;;0.82;0.80;;;1.40;99.90;;;;;;4932231;29;20023;-64
2022/01/21 04:01:09;;;;;;;1.58;1.33;;;1.40;99.90;;;;;;4948310;28;20039;-64
2022/01/21 04:03:35;;;;;;;1.38;1.15;;;1.40;99.90;;;;;;4949018;28;20030;-64
2022/01/21 04:06:00;;;;;;;0.98;0.90;;;1.30;99.90;;;;;;4952017;28;20039;-64
2022/01/21 04:08:26;;;;;;;2.17;1.98;;;1.40;99.90;;;;;;4943402;28;20023;-64
2022/01/21 04:10:52;;;;;;;3.92;1.80;;;1.40;99.90;;;;;;4957319;28;20093;-64
2022/01/21 04:13:20;;;;;;;1.38;1.08;;;1.40;99.90;;;;;;4951712;28;20039;-64
2022/01/21 04:15:49;;;;;;;5.28;1.17;;;1.40;99.90;;;;;;4955810;28;20039;-64
2022/01/21 04:18:15;;;;;;;3.63;1.55;;;1.40;99.90;;;;;;4949047;28;20032;-64
2022/01/21 04:20:42;;;;;;;2.35;2.15;;;1.50;99.90;;;;;;4948558;28;20032;-64
2022/01/21 04:23:10;;;;;;;0.70;0.70;;;1.40;99.90;;;;;;4947789;28;20101;-64
2022/01/21 04:25:36;;;;;;;3.13;1.90;;;1.40;99.90;;;;;;4947042;28;20024;-64
2022/01/21 04:28:01;;;;;;;1.45;1.05;;;1.40;99.90;;;;;;4951953;28;20055;-64
2022/01/21 04:30:27;;;;;;;1.15;0.85;;;1.40;99.90;;;;;;4954632;28;20134;-64
2022/01/21 04:32:53;;;;;;;1.60;1.08;;;1.40;99.90;;;;;;4961343;28;20028;-64
2022/01/21 04:35:19;;;;;;;6.07;1.13;;;1.40;99.90;;;;;;4965102;28;20031;-64
2022/01/21 04:37:53;;;;;;;7.05;1.65;;;1.40;99.90;;;;;;4963300;28;20037;-65
2022/01/21 04:40:21;;;;;;;1.35;1.10;;;1.50;99.90;;;;;;4962844;28;20031;-64
2022/01/21 04:48:15;;;;;;;1.52;1.17;;;1.80;99.90;;;;;;4962679;28;20179;-64
2022/01/21 04:50:52;;;;;;;0.80;0.80;;;1.20;99.90;;;;;;4957647;28;20596;-64
2022/01/21 04:53:18;;;;;;;0.77;0.77;;;1.20;99.90;;;;;;4961295;28;20465;-64
2022/01/21 04:55:44;;;;;;;1.90;1.27;;;1.10;99.90;;;;;;4960106;28;20031;-64
2022/01/21 04:58:10;;;;;;;4.15;1.50;;;1.10;99.90;;;;;;4956596;28;20035;-64
2022/01/21 05:00:35;;;;;;;1.75;1.50;;;1.20;99.90;;;;;;4960125;28;20108;-64
2022/01/21 05:03:01;;;;;;;1.48;0.95;;;1.20;99.90;;;;;;4957371;28;20026;-64
2022/01/21 05:05:27;;;;;;;2.17;1.50;;;1.30;99.90;;;;;;4944460;28;20102;-64
2022/01/21 05:07:54;;;;;;;1.45;1.02;;;1.30;99.90;;;;;;4961119;28;20031;-64
2022/01/21 05:10:20;;;;;;;1.10;1.00;;;1.40;99.90;;;;;;4947618;28;20459;-64
2022/01/21 05:12:45;;;;;;;0.70;0.70;;;1.40;99.90;;;;;;4949781;28;20107;-65
2022/01/21 05:15:18;;;;;;;1.17;0.98;;;1.40;99.90;;;;;;4948463;28;20154;-65
2022/01/21 05:17:48;;;;;;;1.90;1.30;;;1.40;99.90;;;;;;4949212;28;20469;-64
2022/01/21 05:20:14;;;;;;;6.70;1.60;;;1.40;99.90;;;;;;4948934;28;20030;-64
2022/01/21 05:22:40;;;;;;;2.83;2.03;;;1.40;99.90;;;;;;4952504;28;20373;-64
2022/01/21 05:25:06;;;;;;;2.70;1.33;;;1.50;99.90;;;;;;4957879;28;20031;-64
2022/01/21 05:27:32;;;;;;;1.85;1.15;;;1.50;99.90;;;;;;4960800;28;20086;-64
2022/01/21 05:29:58;;;;;;;2.10;1.10;;;1.50;99.90;;;;;;4961844;28;20497;-64
2022/01/21 05:32:24;;;;;;;1.27;1.08;;;1.50;99.90;;;;;;4959251;28;20027;-64
2022/01/21 05:34:49;;;;;;;3.25;1.73;;;1.50;99.90;;;;;;4953770;28;20671;-64
2022/01/21 05:37:15;;;;;;;2.25;1.23;;;1.50;99.90;;;;;;4956243;28;20495;-64
2022/01/21 05:39:41;;;;;;;13.75;2.58;;;1.50;99.90;;;;;;4946762;28;20020;-64
2022/01/21 05:42:07;;;;;;;1.45;1.00;;;1.50;99.90;;;;;;4963448;28;20372;-64
2022/01/21 05:47:00;;;;;;;3.58;1.77;;;1.50;99.90;;;;;;4945265;28;20582;-64
2022/01/21 05:49:28;;;;;;;1.10;1.00;;;1.50;99.90;;;;;;4950031;28;20520;-64
2022/01/21 05:52:03;;;;;;;4.07;1.77;;;1.50;99.90;;;;;;4945044;28;20028;-64
2022/01/21 05:54:29;;;;;;;3.97;1.85;;;1.50;99.90;;;;;;4951026;28;20037;-64
2022/01/21 05:56:54;;;;;;;2.15;1.40;;;1.50;99.90;;;;;;4947271;28;20110;-64
2022/01/21 05:59:22;;;;;;;2.88;1.67;;;1.60;99.90;;;;;;4947969;28;20059;-64
2022/01/21 06:01:48;;;;;;;6.20;2.38;;;1.50;99.90;;;;;;4948479;28;20027;-64
2022/01/21 06:04:13;;;;;;;0.98;0.90;;;1.60;99.90;;;;;;4949712;28;20233;-65
2022/01/21 06:06:39;;;;;;;3.60;1.98;;;1.60;99.90;;;;;;4949331;28;20037;-64
2022/01/21 06:09:05;;;;;;;0.82;0.80;;;1.50;99.90;;;;;;4956255;28;20119;-64
2022/01/21 06:11:31;;;;;;;2.13;1.10;;;1.60;99.90;;;;;;4951340;28;20031;-64
2022/01/21 06:13:57;;;;;;;1.35;1.00;;;1.60;99.90;;;;;;4945163;28;20078;-64
2022/01/21 06:16:23;;;;;;;1.05;0.90;;;1.60;99.90;;;;;;4948360;28;20092;-64
2022/01/21 06:18:49;;;;;;;8.02;2.17;;;1.70;99.90;;;;;;4951074;28;20032;-64
2022/01/21 06:21:14;;;;;;;1.13;1.00;;;1.60;99.90;;;;;;4929726;29;20460;-64
2022/01/21 06:23:40;;;;;;;1.67;0.90;;;1.60;99.90;;;;;;4949232;28;20490;-63
2022/01/21 06:26:07;;;;;;;1.23;1.10;;;1.60;99.90;;;;;;4945854;28;20046;-63
2022/01/21 06:28:33;;;;;;;4.28;1.25;;;1.70;99.90;;;;;;4918148;28;1088261;-63
2022/01/21 06:30:59;;;;;;;1.42;1.05;;;1.60;99.90;;;;;;4959348;28;20031;-63
2022/01/21 06:33:24;;;;;;;1.25;1.00;;;1.70;99.90;;;;;;4960692;28;20092;-63
2022/01/21 06:35:51;;;;;;;1.95;0.93;;;1.70;99.90;;;;;;4962409;28;20498;-63
2022/01/21 06:38:18;;;;;;;0.73;0.73;;;1.70;99.90;;;;;;4951492;28;20435;-63
2022/01/21 06:40:44;;;;;;;0.70;0.70;;;1.70;99.90;;;;;;4955333;28;20023;-64
2022/01/21 06:43:10;;;;;;;0.80;0.80;;;1.70;99.90;;;;;;4943150;28;20028;-63
2022/01/21 06:45:35;;;;;;;1.08;0.98;;;1.70;99.90;;;;;;4949070;28;20042;-64
2022/01/21 06:48:03;;;;;;;1.00;0.88;;;1.70;99.90;;;;;;4940369;28;20031;-64
2022/01/21 06:50:33;;;;;;;2.95;1.40;;;1.70;99.90;;;;;;4940296;28;20035;-63
2022/01/21 06:52:59;;;;;;;2.30;1.05;;;1.70;99.90;;;;;;4942990;28;20034;-64
2022/01/21 06:55:25;;;;;;;1.88;1.40;;;1.70;99.90;;;;;;4946220;28;20032;-63
2022/01/21 06:57:50;;;;;;;3.90;1.60;;;1.60;99.90;;;;;;4948281;28;20035;-63
2022/01/21 07:00:19;;;;;;;1.08;0.95;;;1.60;99.90;;;;;;4944506;28;20035;-64
2022/01/21 07:02:49;;;;;;;5.18;1.88;;;1.60;99.90;;;;;;4942075;28;20015;-63
2022/01/21 07:05:16;;;;;;;1.80;1.08;;;1.60;99.90;;;;;;4946381;28;20093;-64
2022/01/21 07:07:42;;;;;;;1.77;1.02;;;1.60;99.90;;;;;;4947030;28;20031;-64
2022/01/21 07:10:10;;;;;;;0.65;0.65;;;1.70;99.90;;;;;;4945612;28;20029;-64
2022/01/21 07:12:36;;;;;;;0.82;0.80;;;1.70;99.90;;;;;;4948895;29;20032;-63
2022/01/21 07:15:04;;;;;;;1.38;1.27;;;1.70;99.90;;;;;;4932587;28;20031;-64
2022/01/21 07:17:29;;;;;;;4.97;1.60;;;1.70;99.90;;;;;;4951239;28;20129;-63
2022/01/21 07:19:55;;;;;;;5.32;1.80;;;1.80;99.90;;;;;;4948563;28;20058;-63
2022/01/21 07:22:20;;;;;;;3.20;1.38;;;1.70;99.90;;;;;;4952047;28;20018;-61
2022/01/21 07:24:46;;;;;;;13.18;2.88;;;1.80;99.90;;;;;;4955261;28;20114;-64
2022/01/21 07:27:12;;;;;;;6.35;2.25;;;1.80;99.90;;;;;;4959589;28;20420;-64
2022/01/21 07:29:37;;;;;;;4.13;2.00;;;1.70;99.90;;;;;;4944930;28;20039;-63
2022/01/21 07:32:03;;;;;;;11.88;1.77;;;1.70;99.90;;;;;;4947565;28;20040;-63
2022/01/21 07:34:29;;;;;;;4.20;1.80;;;1.80;99.90;;;;;;4947304;28;20400;-64
2022/01/21 07:36:56;;;;;;;1.05;1.00;;;1.80;99.90;;;;;;4943907;28;20040;-63
2022/01/21 07:39:22;;;;;;;1.02;0.93;;;1.80;99.90;;;;;;4951797;28;20043;-63
2022/01/21 07:41:48;;;;;;;4.47;1.20;;;1.80;99.90;;;;;;4948662;28;20040;-63
2022/01/21 07:44:14;;;;;;;2.28;1.38;;;1.90;99.90;;;;;;4943011;28;20396;-64
2022/01/21 07:46:40;;;;;;;2.13;1.48;;;1.90;99.90;;;;;;4942219;28;20030;-64
2022/01/21 07:49:06;;;;;;;2.15;0.95;;;1.90;99.90;;;;;;4942875;28;20042;-64
2022/01/21 07:51:32;;;;;;;3.03;1.65;;;1.90;99.90;;;;;;4947133;28;20027;-63
2022/01/21 07:53:58;;;;;;;3.80;1.67;;;1.90;99.90;;;;;;4944649;28;20031;-64
2022/01/21 07:56:23;;;;;;;7.50;1.45;;;1.90;99.90;;;;;;4946450;28;20032;-63
2022/01/21 07:58:50;;;;;;;2.55;1.65;;;1.80;99.90;;;;;;4942371;28;20571;-63
2022/01/21 08:01:15;;;;;;;1.40;1.00;;;1.90;99.90;;;;;;4949178;28;20031;-63
2022/01/21 08:03:41;;;;;;;2.15;1.33;;;1.90;99.90;;;;;;4950668;28;20392;-64
2022/01/21 08:06:07;;;;;;;2.60;1.75;;;1.90;99.90;;;;;;4947146;28;20042;-63
2022/01/21 08:08:32;;;;;;;3.00;1.63;;;1.90;99.90;;;;;;4942566;28;20030;-63
2022/01/21 08:10:58;;;;;;;2.72;1.75;;;1.90;99.90;;;;;;4948075;29;20118;-63
2022/01/21 08:13:24;;;;;;;2.03;1.55;;;1.90;99.90;;;;;;4946744;28;20027;-64
2022/01/21 08:15:50;;;;;;;2.67;1.58;;;1.90;99.90;;;;;;4948647;28;20407;-64
2022/01/21 08:18:15;;;;;;;1.70;1.33;;;2.10;99.90;;;;;;4944060;28;20031;-63
2022/01/21 08:20:42;;;;;;;0.75;0.75;;;2.10;99.90;;;;;;4940538;28;20051;-64
2022/01/21 08:23:09;;;;;;;3.63;2.13;;;2.10;99.90;;;;;;4949134;28;20691;-64
2022/01/21 08:25:35;;;;;;;5.07;1.67;;;2.00;99.90;;;;;;4957550;28;20555;-64
2022/01/21 08:28:01;;;;;;;2.33;1.33;;;1.90;99.90;;;;;;4958585;28;20038;-64
2022/01/21 08:30:27;;;;;;;2.90;1.52;;;1.90;99.90;;;;;;4953892;28;20055;-63
2022/01/21 08:32:52;;;;;;;0.93;0.90;;;1.90;99.90;;;;;;4952249;28;20468;-63
2022/01/21 08:35:18;;;;;;;2.72;1.52;;;1.90;99.90;;;;;;4955826;28;20034;-63
2022/01/21 08:37:44;;;;;;;5.00;2.58;;;1.90;99.90;;;;;;4957486;28;20036;-63
2022/01/21 08:40:10;;;;;;;4.97;1.52;;;1.90;99.90;;;;;;4956437;28;20105;-63
2022/01/21 08:42:36;;;;;;;1.98;1.33;;;1.90;99.90;;;;;;4954292;28;20106;-63
2022/01/21 08:45:02;;;;;;;2.13;1.40;;;2.00;99.90;;;;;;4950724;28;20420;-63
2022/01/21 08:47:28;;;;;;;3.70;1.90;;;1.90;99.90;;;;;;4934456;29;20117;-63
2022/01/21 08:49:55;;;;;;;2.30;1.55;;;2.00;99.90;;;;;;4947445;28;20155;-63
2022/01/21 08:52:25;;;;;;;2.58;1.55;;;2.00;99.90;;;;;;4952115;28;20783;-63
2022/01/21 08:54:51;;;;;;;6.35;2.88;;;2.10;99.90;;;;;;4948441;28;20027;-63
2022/01/21 08:57:17;;;;;;;4.93;2.55;;;2.10;99.90;;;;;;4949481;28;20391;-63
2022/01/21 08:59:43;;;;;;;5.13;1.80;;;2.20;99.90;;;;;;4947370;28;20031;-63
2022/01/21 09:02:09;;;;;;;8.30;1.98;;;2.20;99.90;;;;;;4949866;28;20435;-63
2022/01/21 09:04:35;;;;;;;3.45;1.80;;;2.20;99.90;;;;;;4950764;28;20106;-63
2022/01/21 09:07:01;;;;;;;1.48;1.20;;;2.30;99.90;;;;;;4947739;28;20094;-63
2022/01/21 09:09:28;;;;;;;4.20;1.95;;;2.30;99.90;;;;;;4948502;28;20416;-63
2022/01/21 09:11:59;;;;;;;2.58;1.73;;;2.30;99.90;;;;;;4948133;28;20495;-63
2022/01/21 09:14:29;;;;;;;7.25;2.42;;;2.40;99.90;;;;;;4949123;28;20517;-63
2022/01/21 09:16:56;;;;;;;11.38;2.50;;;2.40;99.90;;;;;;4948967;28;20059;-64
2022/01/21 09:19:23;;;;;;;3.03;1.45;;;2.50;99.90;;;;;;4950553;28;20031;-63
2022/01/21 09:21:51;;;;;;;3.65;1.90;;;2.60;99.90;;;;;;4950564;28;20126;-63
2022/01/21 09:24:18;;;;;;;3.53;1.83;;;2.70;99.90;;;;;;4950335;28;20673;-63
2022/01/21 09:26:44;;;;;;;8.38;2.85;;;2.80;99.90;;;;;;4952561;28;20027;-64
2022/01/21 09:29:10;;;;;;;0.85;0.80;;;2.80;99.90;;;;;;4951920;28;20810;-64
2022/01/21 09:31:36;;;;;;;6.82;2.10;;;3.00;99.90;;;;;;4951715;28;20027;-63
2022/01/21 09:34:03;;;;;;;4.72;2.15;;;3.10;99.90;;;;;;4949601;28;20039;-64
2022/01/21 09:36:29;;;;;;;2.80;1.45;;;3.00;99.90;;;;;;4947754;28;20129;-64
2022/01/21 09:38:55;;;;;;;3.80;1.58;;;3.10;99.90;;;;;;4952827;28;20117;-63
2022/01/21 09:41:21;;;;;;;2.65;1.77;;;3.10;99.90;;;;;;4949391;28;20034;-64
2022/01/21 09:43:48;;;;;;;1.67;1.15;;;3.10;99.90;;;;;;4948990;28;20066;-64
2022/01/21 09:46:15;;;;;;;7.88;2.13;;;3.30;99.90;;;;;;4947951;28;20035;-63
2022/01/21 09:49:05;;;;;;;1.85;1.13;;;3.30;99.90;;;;;;4948952;28;20042;-63
2022/01/21 09:51:31;;;;;;;11.90;2.85;;;3.30;99.90;;;;;;4947214;28;20645;-63
2022/01/21 09:54:03;;;;;;;0.70;0.70;;;3.20;99.90;;;;;;4948149;28;20030;-63
2022/01/21 09:56:30;;;;;;;2.33;1.38;;;3.60;99.90;;;;;;4948420;28;20034;-64
2022/01/21 09:58:57;;;;;;;4.32;2.20;;;3.60;99.90;;;;;;4949992;28;20032;-64
2022/01/21 10:01:24;;;;;;;4.10;2.00;;;3.30;99.90;;;;;;4949916;28;20034;-64
2022/01/21 10:03:50;;;;;;;7.63;3.08;;;3.10;99.90;;;;;;4933356;28;20063;-64
2022/01/21 10:06:17;;;;;;;4.10;2.45;;;3.30;99.90;;;;;;4948626;28;20034;-64
2022/01/21 10:08:44;;;;;;;2.38;1.40;;;3.50;99.90;;;;;;4943960;28;20039;-63
2022/01/21 10:11:11;;;;;;;3.88;1.63;;;3.50;99.90;;;;;;4949183;28;20035;-63
2022/01/21 10:13:38;;;;;;;4.35;1.95;;;3.40;99.90;;;;;;4950206;28;20031;-63
2022/01/21 10:16:05;;;;;;;5.22;2.13;;;3.20;99.90;;;;;;4951042;28;20039;-64
2022/01/21 10:18:31;;;;;;;37.97;4.05;;;3.20;99.90;;;;;;4949964;28;20059;-61
2022/01/21 10:21:13;;;;;;;4.28;1.27;;;3.20;99.90;;;;;;4949574;28;20059;-64
2022/01/21 10:23:41;;;;;;;5.07;2.80;;;3.30;99.90;;;;;;4947233;28;20039;-62
2022/01/21 10:26:10;;;;;;;5.28;2.22;;;3.30;99.90;;;;;;4948292;28;20447;-62
2022/01/21 10:28:37;;;;;;;4.45;1.95;;;3.30;99.90;;;;;;4948913;28;20047;-64
2022/01/21 10:31:11;;;;;;;2.50;1.75;;;3.30;99.90;;;;;;4930899;29;20035;-62
2022/01/21 10:33:40;;;;;;;2.25;1.52;;;3.40;99.90;;;;;;4947683;28;20031;-62
2022/01/21 10:36:24;;;;;;;1.13;0.93;;;3.40;99.90;;;;;;4947358;28;20039;-61
2022/01/21 10:38:51;;;;;;;3.38;1.58;;;3.40;99.90;;;;;;4946169;28;20027;-62
2022/01/21 10:41:19;;;;;;;3.00;1.85;;;3.60;99.90;;;;;;4947073;28;20046;-62
2022/01/21 10:44:12;;;;;;;6.65;2.67;;;3.70;99.90;;;;;;4948795;28;20042;-61
2022/01/21 10:46:46;;;;;;;3.05;2.10;;;3.70;99.90;;;;;;4947783;28;20065;-61
2022/01/21 10:49:14;;;;;;;1.95;1.27;;;4.30;99.90;;;;;;4947386;28;20051;-61
2022/01/21 10:51:47;;;;;;;7.38;2.38;;;4.30;99.90;;;;;;4946534;28;20118;-62
2022/01/21 10:54:22;;;;;;;8.68;2.53;;;4.60;99.90;;;;;;4946497;28;20141;-61
2022/01/21 10:57:13;;;;;;;13.52;2.63;;;4.40;99.90;;;;;;4947671;28;20023;-61
2022/01/21 10:59:46;;;;;;;7.70;2.20;;;4.10;99.90;;;;;;4946226;28;20173;-61
2022/01/21 11:02:12;;;;;;;3.08;1.70;;;4.10;99.90;;;;;;4946610;28;20170;-61
2022/01/21 11:04:43;;;;;;;3.97;1.75;;;4.20;99.90;;;;;;4947268;28;20121;-61
2022/01/21 11:07:11;;;;;;;2.53;1.30;;;4.10;99.90;;;;;;4951743;28;20110;-62
2022/01/21 11:09:40;;;;;;;3.15;1.52;;;4.20;99.90;;;;;;4941112;28;20028;-61
2022/01/21 11:12:14;;;;;;;2.00;1.48;;;4.20;99.90;;;;;;4947001;28;20035;-62
2022/01/21 11:14:58;;;;;;;2.80;1.77;;;4.30;99.90;;;;;;4951270;28;20027;-62
2022/01/21 11:17:24;;;;;;;6.15;2.50;;;4.40;99.90;;;;;;4943794;28;20495;-61
2022/01/21 11:20:15;;;;;;;4.15;1.52;;;4.50;99.90;;;;;;4953292;28;20027;-61
2022/01/21 11:23:11;;;;;;;1.98;1.20;;;4.60;99.90;;;;;;4950218;28;20042;-61
2022/01/21 11:25:58;;;;;;;2.08;1.50;;;5.30;99.90;;;;;;4943706;28;20035;-61
2022/01/21 11:28:41;;;;;;;3.58;1.85;;;5.10;99.90;;;;;;4950771;28;20087;-61
2022/01/21 11:31:08;;;;;;;3.38;1.42;;;5.00;99.90;;;;;;4945818;28;20038;-61
2022/01/21 11:33:34;;;;;;;3.28;1.45;;;5.10;99.90;;;;;;4928557;28;20031;-62
2022/01/21 11:36:01;;;;;;;4.90;1.92;;;5.00;99.90;;;;;;4954936;28;20483;-62
2022/01/21 11:38:28;;;;;;;11.82;2.47;;;5.30;99.90;;;;;;4958090;28;20078;-62
2022/01/21 11:40:54;;;;;;;3.78;1.77;;;5.40;99.90;;;;;;4951045;28;20496;-63
2022/01/21 11:43:21;;;;;;;19.92;2.17;;;5.60;99.90;;;;;;4950896;28;20543;-63
2022/01/21 11:48:51;;;;;;;6.65;2.10;;;5.20;99.90;;;;;;4960955;28;20051;-62
2022/01/21 11:51:33;;;;;;;6.68;2.45;;;4.90;99.90;;;;;;4948066;28;20046;-62
2022/01/21 11:54:13;;;;;;;3.42;1.40;;;4.90;99.90;;;;;;4927796;29;20035;-62
2022/01/21 11:56:57;;;;;;;6.85;2.33;;;4.90;99.90;;;;;;4949732;28;20486;-62
2022/01/21 12:00:03;;;;;;;5.78;1.73;;;5.00;99.90;;;;;;4945197;28;20062;-62
2022/01/21 12:02:36;;;;;;;6.20;2.15;;;5.20;99.90;;;;;;4944702;28;20055;-62
2022/01/21 12:05:07;;;;;;;5.07;2.17;;;5.30;99.90;;;;;;4944203;28;20034;-62
2022/01/21 12:07:44;;;;;;;2.53;1.27;;;5.40;99.90;;;;;;4946085;28;20035;-61
2022/01/21 12:10:25;;;;;;;6.30;2.13;;;5.30;99.90;;;;;;4950375;28;20774;-62
2022/01/21 12:13:02;;;;;;;6.95;2.15;;;5.50;99.90;;;;;;4946664;28;20065;-62
2022/01/21 12:16:07;;;;;;;3.00;1.55;;;5.40;99.90;;;;;;4951093;28;20158;-63
2022/01/21 12:21:03;;;;;;;2.58;1.50;;;5.30;99.90;;;;;;4911811;29;20488;-62
2022/01/21 12:23:31;;;;;;;2.70;1.42;;;5.40;99.90;;;;;;4900321;29;20261;-63
2022/01/21 12:26:14;;;;;;;4.18;1.77;;;5.20;99.90;;;;;;4905504;29;20039;-62
2022/01/21 12:28:47;;;;;;;3.80;1.48;;;5.10;99.90;;;;;;4904606;29;20071;-62
2022/01/21 12:31:15;;;;;;;7.13;2.75;;;5.00;99.90;;;;;;4900492;29;20056;-62
2022/01/21 12:34:13;;;;;;;2.85;1.10;;;5.10;99.90;;;;;;4908695;29;20058;-62
2022/01/21 12:36:44;;;;;;;4.03;2.22;;;5.30;99.90;;;;;;4905241;29;20046;-62
2022/01/21 12:39:40;;;;;;;2.92;1.70;;;5.20;99.90;;;;;;4900771;29;20040;-62
2022/01/21 12:42:35;;;;;;;2.50;1.50;;;5.10;99.90;;;;;;4901473;29;20115;-62
2022/01/21 12:45:03;;;;;;;2.00;1.27;;;5.20;99.90;;;;;;4904831;29;20052;-62
2022/01/21 12:47:46;;;;;;;6.75;2.08;;;5.20;99.90;;;;;;4899124;29;20338;-62
2022/01/21 12:50:36;;;;;;;7.80;2.25;;;5.20;99.90;;;;;;4897975;29;20040;-63
2022/01/21 12:58:18;;;;;;;3.05;2.03;;;5.10;99.90;;;;;;4953918;28;20510;-62
2022/01/21 13:00:45;;;;;;;3.50;1.35;;;5.00;99.90;;;;;;4950501;28;20054;-62
2022/01/21 13:03:37;;;;;;;3.80;1.83;;;5.10;99.90;;;;;;4942786;28;20035;-62
2022/01/21 13:06:21;;;;;;;3.40;1.55;;;5.10;99.90;;;;;;4960297;28;20039;-62
2022/01/21 13:09:02;;;;;;;2.47;1.40;;;5.00;99.90;;;;;;4950138;28;20046;-63
2022/01/21 13:11:29;;;;;;;2.75;1.55;;;5.10;99.90;;;;;;4945406;28;20028;-62
2022/01/21 13:14:12;;;;;;;6.95;1.88;;;5.10;99.90;;;;;;4936132;28;20020;-63
2022/01/21 13:16:40;;;;;;;3.25;1.35;;;5.10;99.90;;;;;;4939686;28;20760;-62
2022/01/21 13:19:06;;;;;;;3.03;1.40;;;5.00;99.90;;;;;;4928493;29;20032;-62
2022/01/21 13:21:34;;;;;;;4.70;2.05;;;4.90;99.90;;;;;;4951506;28;20046;-62
2022/01/21 13:24:02;;;;;;;3.15;1.42;;;4.80;99.90;;;;;;4945495;28;20098;-62
2022/01/21 13:26:39;;;;;;;2.65;1.58;;;4.80;99.90;;;;;;4950218;28;20031;-62
2022/01/21 13:29:04;;;;;;;5.70;1.25;;;4.70;99.90;;;;;;4946858;28;20043;-62
2022/01/21 13:31:54;;;;;;;6.78;2.53;;;4.60;99.90;;;;;;4943785;28;20395;-62
2022/01/21 13:34:40;;;;;;;7.03;2.22;;;4.60;99.90;;;;;;4943573;28;20082;-62
2022/01/21 13:37:08;;;;;;;3.63;1.60;;;4.50;99.90;;;;;;4945369;28;20035;-63
2022/01/21 13:39:38;;;;;;;1.95;1.55;;;4.40;99.90;;;;;;4927020;29;20027;-62
2022/01/21 13:42:14;;;;;;;2.20;1.00;;;4.30;99.90;;;;;;4950481;28;20086;-62
2022/01/21 13:44:54;;;;;;;2.97;1.25;;;4.30;99.90;;;;;;4948893;28;20567;-62
2022/01/21 13:47:32;;;;;;;3.75;1.65;;;4.30;99.90;;;;;;4951923;28;20035;-62
2022/01/21 13:50:26;;;;;;;2.88;1.40;;;4.40;99.90;;;;;;4951785;28;20035;-62
2022/01/21 13:53:04;;;;;;;4.65;2.33;;;4.40;99.90;;;;;;4945100;28;20051;-62
2022/01/21 13:55:42;;;;;;;4.30;2.22;;;4.40;99.90;;;;;;4950459;28;20065;-62
2022/01/21 13:58:21;;;;;;;5.15;2.17;;;4.50;99.90;;;;;;4946972;28;20022;-62
2022/01/21 14:00:58;;;;;;;8.73;1.90;;;4.50;99.90;;;;;;4954932;28;20118;-62